Terminal Aerodrome Forecast
Issued by NWS

Home | Current Version | Previous Version | Text Only | Print | Product List | Glossary On
Versions: 1 2 3 4 5 6 7 8 9 10 11 12 13
575
FTUS44 KBMX 252340
TAFANB
TAF
KANB 252340Z 2600/2624 VRB04KT 6SM -RA OVC100
      TEMPO 2602/2605 SCT008 OVC025
     FM260800 03006KT 4SM -RA BR SCT002 OVC007
     FM261300 36007KT P6SM BKN007 OVC012
     FM261700 34007KT P6SM BKN025=

USA.gov is the U.S. government's official web portal to all federal, state and local government web resources and services.